KAPF

Naples Municipal Airport

Naples, Florida, USA
METAR KAPF 171753Z 13009KT 10SM FEW070 32/23 A3006 RMK AO2 SLP177 T03220228 10328 20250 58019
Observed Flight Rules
Oct-17 @ 17:53 UTC (46 minutes ago) Visual Flight Rules
Wind Visibility Clouds
130° at 9 knots 10 miles
  • Few at 7,000' AGL
Temperatures Readings
Current 32°C / 90°F
Dewpoint 23°C / 73°F
Humidity 59%
Altimeter 30.06" Hg
Pressure 1017.7 hPa
Elevation 3
METAR KAPF 171753Z 13009KT 10SM FEW070 32/23 A3006 RMK AO2 SLP177 T03220228 10328 20250 58019
Observed Flight Rules
Oct-17 @ 17:53 UTC
(46 minutes ago)
VFR
Wind Visibility
130° at 9 knots 10 miles
Clouds
  • Few at 7,000' AGL
Temperature Dewpoint
32°C / 90°F 23°C / 73°F
Humidity Altimeter Pressure
59% 30.06" Hg 1017.7 hPa